createdAt,value
2018-04-23T00:02:23.372Z,8.00
2018-04-23T00:04:50.830Z,7.43
2018-04-23T00:07:18.352Z,8.63
2018-04-23T00:09:45.859Z,8.70
2018-04-23T00:12:13.388Z,8.43
2018-04-23T00:14:40.850Z,8.17
2018-04-23T00:17:08.356Z,8.80
2018-04-23T00:19:36.626Z,8.37
2018-04-23T00:22:04.845Z,8.83
2018-04-23T00:24:32.364Z,8.77
2018-04-23T00:27:00.595Z,9.40
2018-04-23T00:29:28.074Z,8.83
2018-04-23T00:31:55.542Z,8.53
2018-04-23T00:34:23.827Z,8.63
2018-04-23T00:36:52.096Z,9.30
2018-04-23T00:39:20.357Z,9.00
2018-04-23T00:41:47.831Z,10.13
2018-04-23T00:44:16.085Z,10.43
2018-04-23T00:46:43.583Z,9.60
2018-04-23T00:49:11.099Z,10.20
2018-04-23T00:51:38.611Z,9.57
2018-04-23T00:54:06.085Z,9.80
2018-04-23T00:56:33.938Z,9.70
2018-04-23T00:59:01.414Z,9.27
2018-04-23T01:01:28.924Z,9.50
2018-04-23T01:03:57.200Z,9.73
2018-04-23T01:06:25.484Z,10.10
2018-04-23T01:08:52.999Z,9.20
2018-04-23T01:11:20.500Z,9.50
2018-04-23T01:13:48.016Z,9.13
2018-04-23T01:16:15.478Z,8.97
2018-04-23T01:18:43.006Z,8.67
2018-04-23T01:21:10.470Z,9.73
2018-04-23T01:23:37.952Z,9.13
2018-04-23T01:26:05.455Z,9.47
2018-04-23T01:28:32.932Z,9.30
2018-04-23T01:31:00.444Z,9.10
2018-04-23T01:33:28.715Z,8.77
2018-04-23T01:35:56.951Z,9.03
2018-04-23T01:38:24.477Z,9.40
2018-04-23T01:40:51.934Z,8.77
2018-04-23T01:43:19.409Z,9.60
2018-04-23T01:45:46.883Z,10.07
2018-04-23T01:48:14.370Z,10.80
2018-04-23T01:50:41.871Z,10.13
2018-04-23T01:53:09.344Z,9.07
2018-04-23T01:55:36.822Z,9.90
2018-04-23T01:58:04.286Z,9.70
2018-04-23T02:00:31.815Z,9.53
2018-04-23T02:02:59.319Z,10.13
2018-04-23T02:05:27.628Z,10.10
2018-04-23T02:07:55.139Z,9.83
2018-04-23T02:10:22.657Z,10.03
2018-04-23T02:12:50.126Z,9.23
2018-04-23T02:15:17.648Z,9.83
2018-04-23T02:17:45.119Z,10.37
2018-04-23T02:20:12.643Z,10.37
2018-04-23T02:22:40.913Z,10.73
2018-04-23T02:25:08.383Z,9.60
2018-04-23T02:27:36.651Z,9.83
2018-04-23T02:30:04.936Z,10.67
2018-04-23T02:32:33.200Z,9.70
2018-04-23T02:35:00.720Z,9.70
2018-04-23T02:37:28.987Z,10.10
2018-04-23T02:39:56.458Z,10.63
2018-04-23T02:42:23.985Z,10.17
2018-04-23T02:44:51.462Z,9.77
2018-04-23T02:47:18.930Z,9.83
2018-04-23T02:49:46.410Z,9.30
2018-04-23T02:52:13.875Z,9.30
2018-04-23T02:54:42.180Z,10.50
2018-04-23T02:57:09.656Z,11.17
2018-04-23T02:59:37.125Z,11.30
2018-04-23T03:02:04.639Z,10.67
2018-04-23T03:04:32.878Z,9.07
2018-04-23T03:07:00.347Z,8.90
2018-04-23T03:09:27.822Z,9.10
2018-04-23T03:11:56.058Z,8.30
2018-04-23T03:14:23.571Z,8.43
2018-04-23T03:16:51.072Z,8.70
2018-04-23T03:19:18.532Z,9.33
2018-04-23T03:21:46.006Z,9.37
2018-04-23T03:24:13.515Z,10.33
2018-04-23T03:26:41.028Z,9.60
2018-04-23T03:29:08.529Z,9.67
2018-04-23T03:31:36.041Z,8.63
2018-04-23T03:34:04.284Z,8.90
2018-04-23T03:36:31.796Z,9.97
2018-04-23T03:39:00.028Z,9.40
2018-04-23T03:41:27.518Z,9.30
2018-04-23T03:43:55.787Z,8.53
2018-04-23T03:46:24.075Z,9.53
2018-04-23T03:48:52.350Z,8.93
2018-04-23T03:51:20.593Z,9.63
2018-04-23T03:53:48.106Z,10.27
2018-04-23T03:56:15.581Z,10.33
2018-04-23T03:58:43.067Z,9.93
2018-04-23T04:01:10.584Z,14.33
2018-04-23T04:03:38.054Z,13.63
2018-04-23T04:06:05.534Z,10.30
2018-04-23T04:08:33.044Z,9.50
2018-04-23T04:11:00.568Z,10.10
2018-04-23T04:13:39.943Z,11.03
2018-04-23T04:16:19.498Z,11.70
2018-04-23T04:18:46.971Z,10.47
2018-04-23T04:21:14.462Z,10.13
2018-04-23T04:23:42.694Z,10.77
2018-04-23T04:26:10.216Z,10.60
2018-04-23T04:28:38.448Z,9.83
2018-04-23T04:31:07.555Z,8.90
2018-04-23T04:33:35.055Z,9.23
2018-04-23T04:36:02.534Z,9.33
2018-04-23T04:38:30.036Z,8.80
2018-04-23T04:40:57.559Z,9.27
2018-04-23T04:43:25.064Z,9.93
2018-04-23T04:45:53.307Z,8.53
2018-04-23T04:48:20.814Z,7.90
2018-04-23T04:50:48.332Z,9.50
2018-04-23T04:53:15.910Z,8.10
2018-04-23T04:55:43.502Z,7.50
2018-04-23T04:58:11.108Z,7.60
2018-04-23T05:00:38.692Z,8.00
2018-04-23T05:03:06.282Z,7.83
2018-04-23T05:05:33.837Z,7.30
2018-04-23T05:08:01.435Z,7.70
2018-04-23T05:10:29.026Z,8.70
2018-04-23T05:12:57.386Z,8.80
2018-04-23T05:15:25.722Z,7.20
2018-04-23T05:17:53.318Z,8.00
2018-04-23T05:20:20.854Z,8.40
2018-04-23T05:22:48.425Z,8.40
2018-04-23T05:25:16.002Z,10.33
2018-04-23T05:27:43.533Z,8.00
2018-04-23T05:30:11.040Z,8.03
2018-04-23T05:32:39.824Z,7.30
2018-04-23T05:35:08.100Z,7.43
2018-04-23T05:37:36.404Z,7.57
2018-04-23T05:40:04.009Z,7.63
2018-04-23T05:42:31.549Z,7.20
2018-04-23T05:44:59.598Z,7.50
2018-04-23T05:47:27.264Z,7.27
2018-04-23T05:49:54.895Z,8.17
2018-04-23T05:52:22.540Z,7.37
2018-04-23T05:54:50.017Z,7.40
2018-04-23T05:57:17.652Z,6.03
2018-04-23T05:59:45.311Z,6.20
2018-04-23T06:02:13.072Z,6.53
2018-04-23T06:04:41.436Z,6.20
2018-04-23T06:07:08.958Z,6.37
2018-04-23T06:09:36.538Z,7.03
2018-04-23T06:12:04.340Z,6.37
2018-04-23T06:14:32.591Z,5.77
2018-04-23T06:17:00.112Z,5.70
2018-04-23T06:19:27.621Z,5.23
2018-04-23T06:21:55.103Z,5.53
2018-04-23T06:24:22.577Z,5.12
2018-04-23T06:26:50.100Z,5.78
2018-04-23T06:29:17.600Z,5.80
2018-04-23T06:31:45.095Z,5.68
2018-04-23T06:34:12.599Z,5.07
2018-04-23T06:36:40.051Z,6.82
2018-04-23T06:39:07.518Z,5.53
2018-04-23T06:41:34.990Z,6.40
2018-04-23T06:44:02.505Z,5.10
2018-04-23T06:46:30.772Z,5.72
2018-04-23T06:48:58.268Z,5.68
2018-04-23T06:51:25.806Z,5.12
2018-04-23T06:53:54.283Z,4.72
2018-04-23T06:56:22.566Z,5.87
2018-04-23T06:58:50.844Z,5.28
2018-04-23T07:01:19.079Z,6.15
2018-04-23T07:03:46.562Z,5.65
2018-04-23T07:06:14.804Z,5.80
2018-04-23T07:08:42.319Z,5.85
2018-04-23T07:11:09.832Z,5.57
2018-04-23T07:13:37.315Z,5.35
2018-04-23T07:16:05.598Z,5.20
2018-04-23T07:18:33.846Z,7.00
2018-04-23T07:21:01.323Z,6.03
2018-04-23T07:23:29.587Z,5.18
2018-04-23T07:25:57.090Z,4.85
2018-04-23T07:28:24.604Z,4.15
2018-04-23T07:30:52.117Z,5.28
2018-04-23T07:33:19.627Z,5.50
2018-04-23T07:35:47.899Z,5.00
2018-04-23T07:38:15.444Z,5.20
2018-04-23T07:40:42.938Z,4.55
2018-04-23T07:43:11.175Z,5.25
2018-04-23T07:45:38.686Z,5.07
2018-04-23T07:48:06.159Z,5.18
2018-04-23T07:50:33.669Z,5.00
2018-04-23T07:53:01.977Z,5.55
2018-04-23T07:55:29.470Z,5.28
2018-04-23T07:57:56.942Z,5.15
2018-04-23T08:00:24.474Z,5.53
2018-04-23T08:02:52.030Z,5.75
2018-04-23T08:05:19.526Z,5.18
2018-04-23T08:07:47.037Z,6.35
2018-04-23T08:10:14.536Z,4.93
2018-04-23T08:12:42.848Z,5.53
2018-04-23T08:15:10.334Z,5.12
2018-04-23T08:17:37.798Z,4.68
2018-04-23T08:20:05.266Z,5.47
2018-04-23T08:22:32.742Z,6.12
2018-04-23T08:25:01.019Z,5.25
2018-04-23T08:27:28.528Z,5.15
2018-04-23T08:29:56.061Z,4.28
2018-04-23T08:32:23.566Z,6.35
2018-04-23T08:34:51.047Z,5.05
2018-04-23T08:37:18.551Z,5.03
2018-04-23T08:39:46.038Z,5.93
2018-04-23T08:42:13.564Z,5.62
2018-04-23T08:44:41.043Z,5.22
2018-04-23T08:47:08.514Z,4.80
2018-04-23T08:49:35.987Z,5.18
2018-04-23T08:52:03.460Z,4.95
2018-04-23T08:54:31.750Z,4.97
2018-04-23T08:56:59.974Z,4.70
2018-04-23T08:59:27.491Z,5.22
2018-04-23T09:01:54.997Z,4.97
2018-04-23T09:04:22.481Z,4.97
2018-04-23T09:06:50.756Z,4.65
2018-04-23T09:09:19.266Z,5.07
2018-04-23T09:11:46.830Z,4.43
2018-04-23T09:14:14.308Z,4.55
2018-04-23T09:16:42.008Z,4.78
2018-04-23T09:19:09.530Z,4.78
2018-04-23T09:21:36.998Z,4.97
2018-04-23T09:24:04.524Z,5.12
2018-04-23T09:26:32.027Z,4.60
2018-04-23T09:28:59.502Z,4.53
2018-04-23T09:31:27.743Z,4.35
2018-04-23T09:33:55.231Z,5.62
2018-04-23T09:36:23.498Z,4.70
2018-04-23T09:38:50.980Z,4.75
2018-04-23T09:41:19.215Z,4.32
2018-04-23T09:43:46.700Z,3.70
2018-04-23T09:46:14.931Z,4.13
2018-04-23T09:48:42.406Z,3.70
2018-04-23T09:51:09.881Z,3.40
2018-04-23T09:53:37.392Z,4.77
2018-04-23T09:56:04.860Z,4.00
2018-04-23T09:58:32.412Z,4.73
2018-04-23T10:00:59.857Z,5.67
2018-04-23T10:03:41.941Z,4.90
2018-04-23T10:06:10.223Z,5.00
2018-04-23T10:08:38.496Z,6.33
2018-04-23T10:11:06.012Z,5.70
2018-04-23T10:13:33.513Z,5.37
2018-04-23T10:16:01.006Z,5.93
2018-04-23T10:18:29.280Z,6.57
2018-04-23T10:20:56.826Z,6.57
2018-04-23T10:23:24.303Z,6.60
2018-04-23T10:25:52.554Z,6.37
2018-04-23T10:28:20.031Z,7.07
2018-04-23T10:30:47.556Z,7.37
2018-04-23T10:33:15.022Z,7.57
2018-04-23T10:35:42.502Z,7.63
2018-04-23T10:38:10.746Z,7.00
2018-04-23T10:40:38.226Z,7.70
2018-04-23T10:43:06.509Z,7.80
2018-04-23T10:45:33.991Z,7.77
2018-04-23T10:48:01.497Z,7.43
2018-04-23T10:50:29.021Z,6.50
2018-04-23T10:52:57.254Z,6.33
2018-04-23T10:55:24.831Z,6.83
2018-04-23T10:57:52.298Z,6.83
2018-04-23T11:00:19.789Z,7.07
2018-04-23T11:02:47.265Z,7.53
2018-04-23T11:05:14.763Z,7.53
2018-04-23T11:07:42.288Z,7.27
2018-04-23T11:10:09.766Z,7.83
2018-04-23T11:12:37.275Z,7.60
2018-04-23T11:15:04.758Z,6.77
2018-04-23T11:17:32.236Z,6.43
2018-04-23T11:19:59.719Z,6.90
2018-04-23T11:22:28.008Z,6.80
2018-04-23T11:24:56.296Z,6.40
2018-04-23T11:27:24.532Z,5.87
2018-04-23T11:29:52.021Z,4.50
2018-04-23T11:32:20.257Z,5.13
2018-04-23T11:34:47.782Z,5.07
2018-04-23T11:37:15.279Z,4.50
2018-04-23T11:39:42.779Z,6.30
2018-04-23T11:42:10.266Z,5.10
2018-04-23T11:44:37.739Z,5.03
2018-04-23T11:47:06.040Z,5.17
2018-04-23T11:49:33.506Z,5.03
2018-04-23T11:52:01.808Z,5.10
2018-04-23T11:54:29.281Z,5.80
2018-04-23T11:56:56.799Z,5.13
2018-04-23T11:59:25.065Z,4.90
2018-04-23T12:01:52.592Z,6.23
2018-04-23T12:04:20.100Z,4.60
2018-04-23T12:06:48.391Z,5.03
2018-04-23T12:09:15.916Z,5.23
2018-04-23T12:11:43.377Z,6.10
2018-04-23T12:14:11.627Z,4.50
2018-04-23T12:16:39.106Z,5.03
2018-04-23T12:19:07.339Z,5.90
2018-04-23T12:21:34.911Z,5.43
2018-04-23T12:24:02.388Z,5.67
2018-04-23T12:26:29.899Z,4.77
2018-04-23T12:28:57.391Z,5.03
2018-04-23T12:31:24.926Z,4.73
2018-04-23T12:33:52.437Z,4.60
2018-04-23T12:36:20.683Z,4.57
2018-04-23T12:38:48.339Z,5.67
2018-04-23T12:41:15.870Z,5.00
2018-04-23T12:43:43.356Z,4.70
2018-04-23T12:46:11.728Z,4.77
2018-04-23T12:48:39.257Z,5.17
2018-04-23T12:51:06.833Z,5.00
2018-04-23T12:53:34.307Z,4.83
2018-04-23T12:56:01.832Z,5.23
2018-04-23T12:58:29.345Z,6.40
2018-04-23T13:00:56.855Z,4.70
2018-04-23T13:03:24.365Z,5.50
2018-04-23T13:05:52.725Z,5.53
2018-04-23T13:08:20.256Z,4.43
2018-04-23T13:10:47.731Z,5.30
2018-04-23T13:13:15.298Z,4.50
2018-04-23T13:15:43.567Z,4.40
2018-04-23T13:18:11.055Z,5.33
2018-04-23T13:20:39.351Z,4.70
2018-04-23T13:23:06.825Z,5.07
2018-04-23T13:25:34.315Z,5.23
2018-04-23T13:28:01.969Z,4.83
2018-04-23T13:30:29.507Z,4.87
2018-04-23T13:32:56.991Z,5.37
2018-04-23T13:35:24.507Z,4.90
2018-04-23T13:37:52.035Z,4.63
2018-04-23T13:40:19.543Z,5.13
2018-04-23T13:42:47.063Z,5.53
2018-04-23T13:45:15.326Z,5.43
2018-04-23T13:47:43.603Z,5.17
2018-04-23T13:50:11.112Z,5.10
2018-04-23T13:52:38.665Z,5.07
2018-04-23T13:55:06.181Z,5.83
2018-04-23T13:57:33.746Z,5.97
2018-04-23T14:00:02.016Z,5.90
2018-04-23T14:02:30.370Z,5.13
2018-04-23T14:04:57.849Z,5.70
2018-04-23T14:07:26.099Z,5.40
2018-04-23T14:09:53.573Z,7.30
2018-04-23T14:12:21.059Z,5.73
2018-04-23T14:14:48.543Z,6.17
2018-04-23T14:17:16.083Z,5.63
2018-04-23T14:19:43.550Z,5.47
2018-04-23T14:22:11.024Z,6.18
2018-04-23T14:24:38.522Z,6.43
2018-04-23T14:27:06.790Z,5.73
2018-04-23T14:29:34.319Z,5.67
2018-04-23T14:32:01.816Z,8.50
2018-04-23T14:34:29.398Z,5.73
2018-04-23T14:36:56.962Z,5.80
2018-04-23T14:39:24.458Z,5.40
2018-04-23T14:41:52.794Z,5.30
2018-04-23T14:44:20.321Z,5.70
2018-04-23T14:46:48.576Z,5.40
2018-04-23T14:49:16.104Z,3.90
2018-04-23T14:51:43.701Z,4.63
2018-04-23T14:54:11.273Z,6.57
2018-04-23T14:56:39.694Z,4.80
2018-04-23T14:59:07.310Z,3.07
2018-04-23T15:01:35.647Z,5.20
2018-04-23T15:04:03.175Z,4.67
2018-04-23T15:06:30.745Z,3.87
2018-04-23T15:08:59.028Z,3.40
2018-04-23T15:11:26.538Z,5.27
2018-04-23T15:13:54.033Z,3.57
2018-04-23T15:16:21.632Z,3.40
2018-04-23T15:18:49.151Z,3.50
2018-04-23T15:21:16.685Z,6.20
2018-04-23T15:23:44.988Z,6.17
2018-04-23T15:26:12.536Z,5.90
2018-04-23T15:28:40.059Z,6.30
2018-04-23T15:31:07.585Z,6.18
2018-04-23T15:33:35.198Z,6.77
2018-04-23T15:36:03.544Z,5.80
2018-04-23T15:38:31.026Z,5.73
2018-04-23T15:40:58.556Z,6.23
2018-04-23T15:43:26.108Z,5.80
2018-04-23T15:45:53.648Z,6.13
2018-04-23T15:48:21.143Z,6.23
2018-04-23T15:50:48.610Z,6.40
2018-04-23T15:53:16.879Z,6.80
2018-04-23T15:55:44.402Z,6.47
2018-04-23T15:58:11.933Z,6.63
2018-04-23T16:00:39.411Z,6.27
2018-04-23T16:03:06.952Z,6.37
2018-04-23T16:05:34.430Z,6.60
2018-04-23T16:08:01.986Z,6.20
2018-04-23T16:10:29.466Z,6.23
2018-04-23T16:12:56.967Z,13.87
2018-04-23T16:15:26.387Z,7.50
2018-04-23T16:17:56.476Z,8.83
2018-04-23T16:20:24.764Z,6.73
2018-04-23T16:22:53.040Z,17.40
2018-04-23T16:25:21.333Z,7.70
2018-04-23T16:27:48.810Z,7.27
2018-04-23T16:30:16.402Z,7.00
2018-04-23T16:32:43.937Z,7.53
2018-04-23T16:35:11.491Z,8.40
2018-04-23T16:37:38.969Z,8.20
2018-04-23T16:40:06.464Z,7.97
2018-04-23T16:42:34.740Z,7.97
2018-04-23T16:45:03.028Z,7.97
2018-04-23T16:47:30.504Z,10.70
2018-04-23T16:49:58.102Z,10.50
2018-04-23T16:52:25.654Z,48.77
2018-04-23T16:54:53.669Z,42.13
2018-04-23T16:57:21.138Z,17.17
2018-04-23T16:59:48.619Z,10.27
2018-04-23T17:02:16.095Z,7.80
2018-04-23T17:04:43.586Z,8.77
2018-04-23T17:07:11.822Z,13.43
2018-04-23T17:09:39.357Z,23.07
2018-04-23T17:12:06.868Z,16.90
2018-04-23T17:14:35.178Z,9.87
2018-04-23T17:17:02.696Z,7.97
2018-04-23T17:19:30.203Z,11.10
2018-04-23T17:21:58.490Z,9.53
2018-04-23T17:24:26.016Z,13.23
2018-04-23T17:26:53.502Z,19.57
2018-04-23T17:29:21.024Z,16.20
2018-04-23T17:31:48.567Z,16.43
2018-04-23T17:34:16.839Z,14.30
2018-04-23T17:36:44.365Z,15.80
2018-04-23T17:39:11.853Z,10.30
2018-04-23T17:41:39.410Z,8.87
2018-04-23T17:44:06.845Z,8.43
2018-04-23T17:46:34.384Z,10.23
2018-04-23T17:49:01.912Z,7.40
2018-04-23T17:51:29.464Z,6.93
2018-04-23T17:53:57.751Z,8.10
2018-04-23T17:56:25.292Z,6.47
2018-04-23T17:58:53.579Z,6.33
2018-04-23T18:01:21.145Z,5.87
2018-04-23T18:03:48.652Z,5.77
2018-04-23T18:06:16.185Z,5.30
2018-04-23T18:08:43.706Z,6.33
2018-04-23T18:11:12.004Z,6.07
2018-04-23T18:13:39.516Z,4.97
2018-04-23T18:16:07.326Z,5.03
2018-04-23T18:18:34.799Z,5.10
2018-04-23T18:21:02.328Z,5.23
2018-04-23T18:23:29.873Z,7.07
2018-04-23T18:25:58.134Z,5.50
2018-04-23T18:28:25.597Z,5.80
2018-04-23T18:30:53.847Z,5.60
2018-04-23T18:33:21.310Z,5.13
2018-04-23T18:35:48.827Z,4.60
2018-04-23T18:38:16.337Z,4.47
2018-04-23T18:40:43.818Z,5.67
2018-04-23T18:43:11.297Z,5.07
2018-04-23T18:45:38.796Z,5.20
2018-04-23T18:48:06.316Z,4.97
2018-04-23T18:50:33.781Z,4.97
2018-04-23T18:53:01.266Z,5.53
2018-04-23T18:55:28.763Z,6.20
2018-04-23T18:57:57.057Z,5.60
2018-04-23T19:00:24.601Z,5.87
2018-04-23T19:02:52.165Z,6.40
2018-04-23T19:05:19.693Z,6.40
2018-04-23T19:07:47.221Z,6.17
2018-04-23T19:10:14.696Z,6.00
2018-04-23T19:12:42.224Z,5.20
2018-04-23T19:15:09.695Z,5.00
2018-04-23T19:17:37.211Z,5.63
2018-04-23T19:20:04.676Z,5.73
2018-04-23T19:22:32.162Z,5.40
2018-04-23T19:24:59.635Z,6.07
2018-04-23T19:27:27.246Z,5.87
2018-04-23T19:29:54.670Z,5.97
2018-04-23T19:32:22.903Z,5.87
2018-04-23T19:34:50.442Z,6.70
2018-04-23T19:37:17.929Z,5.87
2018-04-23T19:39:45.402Z,8.03
2018-04-23T19:42:12.972Z,7.00
2018-04-23T19:44:40.412Z,7.50
2018-04-23T19:47:07.931Z,9.60
2018-04-23T19:49:35.454Z,8.00
2018-04-23T19:52:03.752Z,8.00
2018-04-23T19:54:31.252Z,7.50
2018-04-23T19:56:58.741Z,7.90
2018-04-23T19:59:26.239Z,8.50
2018-04-23T20:01:53.776Z,8.33
2018-04-23T20:04:21.305Z,9.13
2018-04-23T20:06:48.848Z,9.23
2018-04-23T20:09:17.091Z,9.77
2018-04-23T20:11:44.606Z,8.43
2018-04-23T20:14:12.868Z,8.13
2018-04-23T20:16:40.485Z,8.70
2018-04-23T20:19:08.096Z,8.43
2018-04-23T20:21:35.626Z,8.67
2018-04-23T20:24:03.157Z,9.33
2018-04-23T20:26:30.634Z,8.87
2018-04-23T20:28:58.121Z,8.20
2018-04-23T20:31:25.603Z,8.47
2018-04-23T20:33:53.869Z,10.10
2018-04-23T20:36:22.148Z,8.87
2018-04-23T20:38:50.723Z,8.70
2018-04-23T20:41:19.050Z,10.43
2018-04-23T20:43:46.571Z,8.60
2018-04-23T20:46:14.872Z,9.77
2018-04-23T20:48:42.354Z,9.53
2018-04-23T20:51:09.868Z,9.40
2018-04-23T20:53:37.359Z,8.63
2018-04-23T20:56:04.829Z,9.50
2018-04-23T20:58:32.332Z,8.47
2018-04-23T21:01:00.594Z,8.50
2018-04-23T21:03:28.141Z,8.30
2018-04-23T21:05:55.668Z,7.90
2018-04-23T21:08:23.187Z,9.07
2018-04-23T21:10:50.702Z,9.57
2018-04-23T21:13:18.206Z,8.73
2018-04-23T21:15:45.685Z,7.97
2018-04-23T21:18:13.512Z,7.90
2018-04-23T21:20:41.796Z,8.70
2018-04-23T21:23:10.089Z,8.03
2018-04-23T21:25:37.603Z,8.63
2018-04-23T21:28:05.122Z,8.13
2018-04-23T21:30:32.619Z,7.77
2018-04-23T21:33:00.152Z,7.50
2018-04-23T21:35:27.715Z,8.00
2018-04-23T21:37:55.182Z,8.47
2018-04-23T21:40:22.727Z,9.07
2018-04-23T21:42:50.227Z,9.07
2018-04-23T21:45:17.778Z,8.20
2018-04-23T21:47:45.287Z,9.20
2018-04-23T21:50:12.774Z,9.53
2018-04-23T21:52:41.073Z,10.50
2018-04-23T21:55:09.372Z,9.47
2018-04-23T21:57:37.606Z,10.07
2018-04-23T22:00:05.148Z,8.97
2018-04-23T22:02:32.692Z,9.53
2018-04-23T22:05:00.215Z,9.63
2018-04-23T22:07:28.478Z,10.67
2018-04-23T22:09:56.738Z,10.73
2018-04-23T22:12:24.238Z,10.67
2018-04-23T22:14:51.758Z,10.57
2018-04-23T22:17:19.238Z,10.17
2018-04-23T22:19:47.503Z,8.27
2018-04-23T22:22:15.758Z,10.43
2018-04-23T22:24:43.291Z,10.50
2018-04-23T22:27:10.787Z,9.83
2018-04-23T22:29:38.295Z,7.80
2018-04-23T22:32:05.819Z,8.37
2018-04-23T22:34:34.086Z,8.43
2018-04-23T22:37:02.381Z,9.13
2018-04-23T22:39:30.663Z,8.97
2018-04-23T22:41:58.143Z,8.87
2018-04-23T22:44:25.610Z,8.93
2018-04-23T22:46:53.417Z,10.20
2018-04-23T22:52:53.269Z,11.90
2018-04-23T22:55:21.535Z,10.27
2018-04-23T22:57:49.809Z,8.60
2018-04-23T23:00:18.093Z,9.93
2018-04-23T23:02:46.360Z,11.13
2018-04-23T23:05:14.631Z,11.37
2018-04-23T23:07:42.915Z,10.20
2018-04-23T23:10:11.182Z,10.33
2018-04-23T23:12:39.424Z,10.53
2018-04-23T23:15:06.967Z,12.33
2018-04-23T23:17:34.450Z,10.27
2018-04-23T23:20:02.074Z,10.10
2018-04-23T23:22:29.511Z,11.83
2018-04-23T23:24:56.998Z,9.20
2018-04-23T23:27:24.535Z,10.53
2018-04-23T23:29:52.738Z,10.70
2018-04-23T23:32:20.234Z,9.50
2018-04-23T23:34:48.482Z,8.23
2018-04-23T23:37:15.985Z,8.77
2018-04-23T23:39:43.446Z,6.57
2018-04-23T23:42:10.933Z,7.33
2018-04-23T23:44:38.432Z,10.50
2018-04-23T23:47:05.950Z,13.27
2018-04-23T23:49:33.517Z,12.10
2018-04-23T23:52:00.995Z,12.07
2018-04-23T23:54:28.505Z,9.60
2018-04-23T23:56:56.003Z,10.33
2018-04-23T23:59:23.482Z,11.20
